Terminal Aerodrome Forecast
Issued by NWS

Current Version | Previous Version | Text Only | Print | Product List | Glossary Off
Versions: 1 2 3 4 5 6 7 8 9 10 11 12 13 14

000
FTUS41 KRNK 231720
TAFLWB
TAF
KLWB 231720Z 2318/2418 33003KT P6SM SKC
     FM241000 00000KT 1/4SM FG OVC001
     FM241230 VRB03KT P6SM SKC=

USA.gov is the U.S. government's official web portal to all federal, state and local government web resources and services.